Chitose — JD2925 — position and weather

sailwx.info

Track history (hours):
 
Tides and Currents Weather Stations Pressure Air Temp Water Temp Dewpoint Dewpoint Depression Visibility Wind Speed Wind Dir Waves Ship Positions

Chitose

Last reported at 2016-May-29 03:33 UTC. Time now 2016-May-29 03:56 UTC.
Position N 35°27' E 139°39'.

Length 33 m; draft 3.8 m.

Type: Tug. MMSI: 431000953.

Date/timePositionNaut miles runAvg speedWind from/ knotsBaromVisibWave heightAir tempDewpointWater temp
2016-May-29 03:33N 35°27' E 139°39'0 0.0
2016-May-29 02:33N 35°27' E 139°39'1 1.4
2016-May-29 01:33N 35°27' E 139°40'3 3.5
2016-May-29 00:33N 35°28' E 139°44'5 4.8
2016-May-28 23:33N 35°27' E 139°39'0 0.0
2016-May-28 22:33N 35°27' E 139°39'0 0.0
2016-May-28 21:33N 35°27' E 139°39'0 0.0
2016-May-28 20:33N 35°27' E 139°39'0 0.0
2016-May-28 06:33N 35°27' E 139°39'0 0.0
2016-May-28 05:33N 35°27' E 139°39'0 0.0
2016-May-28 04:33N 35°27' E 139°39'0 0.0
2016-May-28 03:33N 35°27' E 139°39'4 3.7
2016-May-28 02:33N 35°28' E 139°43'0 0.0
2016-May-28 01:33N 35°28' E 139°43'3 2.6
2016-May-28 00:33N 35°26' E 139°45'3 2.7
2016-May-27 23:33N 35°27' E 139°42'2 1.6
2016-May-27 22:33N 35°28' E 139°41'2 2.4
2016-May-27 21:33N 35°27' E 139°43'4 3.8
2016-May-27 20:33N 35°27' E 139°39'0 0.0
2016-May-27 06:28N 35°27' E 139°39'2 2.1
2016-May-27 05:33N 35°27' E 139°41'2 2.0
2016-May-27 04:33N 35°27' E 139°39'0 0.0
2016-May-27 03:33N 35°27' E 139°39'0 0.0
2016-May-27 02:33N 35°27' E 139°39'5 5.0
2016-May-27 01:33N 35°29' E 139°44'1 0.6
2016-May-27 00:33N 35°28' E 139°45'2 2.0
2016-May-26 23:34N 35°30' E 139°47'3 2.8
2016-May-26 22:33N 35°30' E 139°43'2 2.3
2016-May-26 21:33N 35°27' E 139°43'4 3.6
2016-May-26 20:33N 35°27' E 139°39'0 0.0
2016-May-26 08:28N 35°27' E 139°39'2 2.3
2016-May-26 07:34N 35°27' E 139°41'1 0.6
2016-May-26 06:34N 35°28' E 139°40'1 0.8
2016-May-26 05:34N 35°28' E 139°41'2 2.3
2016-May-26 04:33N 35°27' E 139°39'0 0.0
2016-May-26 03:34N 35°27' E 139°39'0 0.0
2016-May-26 02:33N 35°27' E 139°39'0 0.0
2016-May-26 01:34N 35°27' E 139°39'1 0.7
2016-May-26 00:34N 35°27' E 139°39'0 0.5
2016-May-25 23:34N 35°27' E 139°39'2 2.4
2016-May-25 22:34N 35°25' E 139°41'2 1.6
2016-May-25 21:33N 35°26' E 139°43'4 3.8
2016-May-25 20:34N 35°27' E 139°39'0 0.0
2016-May-24 22:04N 35°27' E 139°39'4 7.5
2016-May-24 21:33N 35°27' E 139°43'4 3.6
2016-May-24 20:34N 35°30' E 139°46'7 6.8
2016-May-24 19:33N 35°27' E 139°39'0 0.0
2016-May-24 18:33N 35°27' E 139°39'0 0.0
2016-May-24 17:33N 35°27' E 139°39'0 0.0
2016-May-24 16:33N 35°27' E 139°39'0 0.0
2016-May-24 15:33N 35°27' E 139°39'0 0.0
2016-May-24 14:34N 35°27' E 139°39'0 0.0
2016-May-24 13:33N 35°27' E 139°39'0 0.0
2016-May-24 12:33N 35°27' E 139°39'0 0.0
2016-May-24 11:34N 35°27' E 139°39'2 2.2
2016-May-24 10:33N 35°27' E 139°41'1 0.6
2016-May-24 09:34N 35°27' E 139°42'2 1.5
2016-May-24 08:33N 35°28' E 139°40'1 1.0
2016-May-24 07:33N 35°27' E 139°41'1 0.9
2016-May-24 06:33N 35°27' E 139°42'1 0.9
2016-May-24 05:34N 35°27' E 139°41'1 0.9
2016-May-24 04:34N 35°27' E 139°42'4 4.3
2016-May-24 03:34N 35°24' E 139°38'0 0.1
2016-May-24 02:34N 35°24' E 139°38'3 2.6
2016-May-24 01:34N 35°23' E 139°41'4 4.2
2016-May-24 00:34N 35°27' E 139°40'1 1.5
2016-May-23 23:33N 35°27' E 139°39'0 0.0
2016-May-23 22:33N 35°27' E 139°39'0 0.0
2016-May-23 21:34N 35°27' E 139°39'0 0.0
2016-May-23 20:33N 35°27' E 139°39'0 0.0
2016-May-23 09:28N 35°27' E 139°39'8 8.3
2016-May-23 08:33N 35°30' E 139°47'1 0.7
2016-May-23 07:33N 35°30' E 139°47'0 0.0
2016-May-23 06:33N 35°30' E 139°47'0 0.0
2016-May-23 05:33N 35°30' E 139°47'1 1.3
2016-May-23 04:33N 35°31' E 139°46'4 4.3
2016-May-23 03:33N 35°28' E 139°42'1 1.3
2016-May-23 02:33N 35°28' E 139°44'0 0.0
2016-May-23 01:33N 35°28' E 139°44'4 3.9
2016-May-23 00:33N 35°31' E 139°46'1 1.0
2016-May-22 23:33N 35°30' E 139°46'4 4.5
2016-May-22 22:33N 35°26' E 139°43'4 3.6
2016-May-22 21:33N 35°28' E 139°39'1 0.0
2016-May-21 08:30N 35°27' E 139°40'1 1.5
2016-May-21 07:34N 35°28' E 139°41'1 0.6
2016-May-21 06:34N 35°27' E 139°42'1 1.3
2016-May-21 05:34N 35°27' E 139°41'1 1.2
2016-May-21 04:34N 35°28' E 139°40'0 0.0
2016-May-21 03:34N 35°28' E 139°40'0 0.0
2016-May-21 02:34N 35°28' E 139°40'0 0.0
2016-May-21 01:34N 35°28' E 139°40'0 0.0
2016-May-21 00:34N 35°28' E 139°40'0 0.0
2016-May-20 23:34N 35°28' E 139°40'2 1.6
2016-May-20 22:34N 35°29' E 139°42'3 2.8
2016-May-20 21:34N 35°30' E 139°45'5 5.0
2016-May-20 20:34N 35°27' E 139°40'0 0.0
2016-May-20 09:06N 35°27' E 139°40'0 0.0
2016-May-20 08:34N 35°27' E 139°40'2 1.7
2016-May-20 07:34N 35°25' E 139°41'2 1.7
2016-May-20 06:33N 35°27' E 139°40'0 0.0
2016-May-20 05:34N 35°27' E 139°40'0 0.0
2016-May-20 04:34N 35°27' E 139°40'0 0.0
2016-May-20 03:34N 35°27' E 139°40'0 0.0
2016-May-20 02:34N 35°27' E 139°40'4 4.1
2016-May-20 01:34N 35°28' E 139°44'3 2.7
2016-May-20 00:34N 35°27' E 139°42'2 1.5
2016-May-19 23:34N 35°27' E 139°40'0 0.0
2016-May-19 22:34N 35°27' E 139°40'  
Track history (hours):
 
Tides and Currents Weather Stations Pressure Air Temp Water Temp Dewpoint Dewpoint Depression Visibility Wind Speed Wind Dir Waves Ship Positions

Chitose

Last reported at 2016-May-29 03:33 UTC. Time now 2016-May-29 03:56 UTC.
Position N 35°27' E 139°39'.

Length 33 m; draft 3.8 m.

Type: Tug. MMSI: 431000953.

Date/timePositionNaut miles runAvg speedWind from/ knotsBaromVisibWave heightAir tempDewpointWater temp
2016-May-29 03:33N 35°27' E 139°39'0 0.0
2016-May-29 02:33N 35°27' E 139°39'1 1.4
2016-May-29 01:33N 35°27' E 139°40'3 3.5
2016-May-29 00:33N 35°28' E 139°44'5 4.8
2016-May-28 23:33N 35°27' E 139°39'0 0.0
2016-May-28 22:33N 35°27' E 139°39'0 0.0
2016-May-28 21:33N 35°27' E 139°39'0 0.0
2016-May-28 20:33N 35°27' E 139°39'0 0.0
2016-May-28 06:33N 35°27' E 139°39'0 0.0
2016-May-28 05:33N 35°27' E 139°39'0 0.0
2016-May-28 04:33N 35°27' E 139°39'0 0.0
2016-May-28 03:33N 35°27' E 139°39'4 3.7
2016-May-28 02:33N 35°28' E 139°43'0 0.0
2016-May-28 01:33N 35°28' E 139°43'3 2.6
2016-May-28 00:33N 35°26' E 139°45'3 2.7
2016-May-27 23:33N 35°27' E 139°42'2 1.6
2016-May-27 22:33N 35°28' E 139°41'2 2.4
2016-May-27 21:33N 35°27' E 139°43'4 3.8
2016-May-27 20:33N 35°27' E 139°39'0 0.0
2016-May-27 06:28N 35°27' E 139°39'2 2.1
2016-May-27 05:33N 35°27' E 139°41'2 2.0
2016-May-27 04:33N 35°27' E 139°39'0 0.0
2016-May-27 03:33N 35°27' E 139°39'0 0.0
2016-May-27 02:33N 35°27' E 139°39'5 5.0
2016-May-27 01:33N 35°29' E 139°44'1 0.6
2016-May-27 00:33N 35°28' E 139°45'2 2.0
2016-May-26 23:34N 35°30' E 139°47'3 2.8
2016-May-26 22:33N 35°30' E 139°43'2 2.3
2016-May-26 21:33N 35°27' E 139°43'4 3.6
2016-May-26 20:33N 35°27' E 139°39'0 0.0
2016-May-26 08:28N 35°27' E 139°39'2 2.3
2016-May-26 07:34N 35°27' E 139°41'1 0.6
2016-May-26 06:34N 35°28' E 139°40'1 0.8
2016-May-26 05:34N 35°28' E 139°41'2 2.3
2016-May-26 04:33N 35°27' E 139°39'0 0.0
2016-May-26 03:34N 35°27' E 139°39'0 0.0
2016-May-26 02:33N 35°27' E 139°39'0 0.0
2016-May-26 01:34N 35°27' E 139°39'1 0.7
2016-May-26 00:34N 35°27' E 139°39'0 0.5
2016-May-25 23:34N 35°27' E 139°39'2 2.4
2016-May-25 22:34N 35°25' E 139°41'2 1.6
2016-May-25 21:33N 35°26' E 139°43'4 3.8
2016-May-25 20:34N 35°27' E 139°39'0 0.0
2016-May-24 22:04N 35°27' E 139°39'4 7.5
2016-May-24 21:33N 35°27' E 139°43'4 3.6
2016-May-24 20:34N 35°30' E 139°46'7 6.8
2016-May-24 19:33N 35°27' E 139°39'0 0.0
2016-May-24 18:33N 35°27' E 139°39'0 0.0
2016-May-24 17:33N 35°27' E 139°39'0 0.0
2016-May-24 16:33N 35°27' E 139°39'0 0.0
2016-May-24 15:33N 35°27' E 139°39'0 0.0
2016-May-24 14:34N 35°27' E 139°39'0 0.0
2016-May-24 13:33N 35°27' E 139°39'0 0.0
2016-May-24 12:33N 35°27' E 139°39'0 0.0
2016-May-24 11:34N 35°27' E 139°39'2 2.2
2016-May-24 10:33N 35°27' E 139°41'1 0.6
2016-May-24 09:34N 35°27' E 139°42'2 1.5
2016-May-24 08:33N 35°28' E 139°40'1 1.0
2016-May-24 07:33N 35°27' E 139°41'1 0.9
2016-May-24 06:33N 35°27' E 139°42'1 0.9
2016-May-24 05:34N 35°27' E 139°41'1 0.9
2016-May-24 04:34N 35°27' E 139°42'4 4.3
2016-May-24 03:34N 35°24' E 139°38'0 0.1
2016-May-24 02:34N 35°24' E 139°38'3 2.6
2016-May-24 01:34N 35°23' E 139°41'4 4.2
2016-May-24 00:34N 35°27' E 139°40'1 1.5
2016-May-23 23:33N 35°27' E 139°39'0 0.0
2016-May-23 22:33N 35°27' E 139°39'0 0.0
2016-May-23 21:34N 35°27' E 139°39'0 0.0
2016-May-23 20:33N 35°27' E 139°39'0 0.0
2016-May-23 09:28N 35°27' E 139°39'8 8.3
2016-May-23 08:33N 35°30' E 139°47'1 0.7
2016-May-23 07:33N 35°30' E 139°47'0 0.0
2016-May-23 06:33N 35°30' E 139°47'0 0.0
2016-May-23 05:33N 35°30' E 139°47'1 1.3
2016-May-23 04:33N 35°31' E 139°46'4 4.3
2016-May-23 03:33N 35°28' E 139°42'1 1.3
2016-May-23 02:33N 35°28' E 139°44'0 0.0
2016-May-23 01:33N 35°28' E 139°44'4 3.9
2016-May-23 00:33N 35°31' E 139°46'1 1.0
2016-May-22 23:33N 35°30' E 139°46'4 4.5
2016-May-22 22:33N 35°26' E 139°43'4 3.6
2016-May-22 21:33N 35°28' E 139°39'1 0.0
2016-May-21 08:30N 35°27' E 139°40'1 1.5
2016-May-21 07:34N 35°28' E 139°41'1 0.6
2016-May-21 06:34N 35°27' E 139°42'1 1.3
2016-May-21 05:34N 35°27' E 139°41'1 1.2
2016-May-21 04:34N 35°28' E 139°40'0 0.0
2016-May-21 03:34N 35°28' E 139°40'0 0.0
2016-May-21 02:34N 35°28' E 139°40'0 0.0
2016-May-21 01:34N 35°28' E 139°40'0 0.0
2016-May-21 00:34N 35°28' E 139°40'0 0.0
2016-May-20 23:34N 35°28' E 139°40'2 1.6
2016-May-20 22:34N 35°29' E 139°42'3 2.8
2016-May-20 21:34N 35°30' E 139°45'5 5.0
2016-May-20 20:34N 35°27' E 139°40'0 0.0
2016-May-20 09:06N 35°27' E 139°40'0 0.0
2016-May-20 08:34N 35°27' E 139°40'2 1.7
2016-May-20 07:34N 35°25' E 139°41'2 1.7
2016-May-20 06:33N 35°27' E 139°40'0 0.0
2016-May-20 05:34N 35°27' E 139°40'0 0.0
2016-May-20 04:34N 35°27' E 139°40'0 0.0
2016-May-20 03:34N 35°27' E 139°40'0 0.0
2016-May-20 02:34N 35°27' E 139°40'4 4.1
2016-May-20 01:34N 35°28' E 139°44'3 2.7
2016-May-20 00:34N 35°27' E 139°42'2 1.5
2016-May-19 23:34N 35°27' E 139°40'0 0.0
2016-May-19 22:34N 35°27' E 139°40'  

Dump ship's entire track history